sensor_id;sensor_type;location;lat;lon;timestamp;P1;durP1;ratioP1;P2;durP2;ratioP2
22080;SDS011;11207;59.512;18.050;2022-08-23T00:01:35;4.33;;;2.30;;
22080;SDS011;11207;59.512;18.050;2022-08-23T00:04:08;7.43;;;2.40;;
22080;SDS011;11207;59.512;18.050;2022-08-23T00:06:36;4.47;;;2.40;;
22080;SDS011;11207;59.512;18.050;2022-08-23T00:09:03;5.93;;;2.17;;
22080;SDS011;11207;59.512;18.050;2022-08-23T00:14:02;5.73;;;2.30;;
22080;SDS011;11207;59.512;18.050;2022-08-23T00:16:32;5.53;;;2.30;;
22080;SDS011;11207;59.512;18.050;2022-08-23T00:18:58;9.30;;;2.67;;
22080;SDS011;11207;59.512;18.050;2022-08-23T00:21:24;6.27;;;2.50;;
22080;SDS011;11207;59.512;18.050;2022-08-23T00:23:49;7.37;;;2.60;;
22080;SDS011;11207;59.512;18.050;2022-08-23T00:26:15;4.87;;;2.40;;
22080;SDS011;11207;59.512;18.050;2022-08-23T00:28:44;4.03;;;2.40;;
22080;SDS011;11207;59.512;18.050;2022-08-23T00:31:10;5.60;;;2.33;;
22080;SDS011;11207;59.512;18.050;2022-08-23T00:33:35;3.73;;;2.73;;
22080;SDS011;11207;59.512;18.050;2022-08-23T00:36:01;6.87;;;2.57;;
22080;SDS011;11207;59.512;18.050;2022-08-23T00:38:27;3.80;;;2.30;;
22080;SDS011;11207;59.512;18.050;2022-08-23T00:40:53;2.93;;;2.33;;
22080;SDS011;11207;59.512;18.050;2022-08-23T00:43:23;5.17;;;2.43;;
22080;SDS011;11207;59.512;18.050;2022-08-23T00:49:04;6.83;;;2.60;;
22080;SDS011;11207;59.512;18.050;2022-08-23T00:54:34;3.60;;;2.50;;
22080;SDS011;11207;59.512;18.050;2022-08-23T00:57:03;5.93;;;2.83;;
22080;SDS011;11207;59.512;18.050;2022-08-23T00:59:32;4.37;;;2.50;;
22080;SDS011;11207;59.512;18.050;2022-08-23T01:01:58;5.57;;;2.37;;
22080;SDS011;11207;59.512;18.050;2022-08-23T01:04:26;3.77;;;2.20;;
22080;SDS011;11207;59.512;18.050;2022-08-23T01:06:57;4.57;;;2.33;;
22080;SDS011;11207;59.512;18.050;2022-08-23T01:09:27;4.03;;;2.50;;
22080;SDS011;11207;59.512;18.050;2022-08-23T01:14:28;5.43;;;2.63;;
22080;SDS011;11207;59.512;18.050;2022-08-23T01:17:07;5.63;;;2.57;;
22080;SDS011;11207;59.512;18.050;2022-08-23T01:19:46;6.77;;;2.73;;
22080;SDS011;11207;59.512;18.050;2022-08-23T01:25:09;3.50;;;2.40;;
22080;SDS011;11207;59.512;18.050;2022-08-23T01:27:38;3.47;;;2.27;;
22080;SDS011;11207;59.512;18.050;2022-08-23T01:30:06;4.50;;;2.23;;
22080;SDS011;11207;59.512;18.050;2022-08-23T01:32:36;4.70;;;2.50;;
22080;SDS011;11207;59.512;18.050;2022-08-23T01:35:08;5.30;;;2.50;;
22080;SDS011;11207;59.512;18.050;2022-08-23T01:37:34;5.80;;;2.80;;
22080;SDS011;11207;59.512;18.050;2022-08-23T01:40:00;6.47;;;2.30;;
22080;SDS011;11207;59.512;18.050;2022-08-23T01:42:26;2.97;;;2.00;;
22080;SDS011;11207;59.512;18.050;2022-08-23T01:44:52;4.73;;;2.43;;
22080;SDS011;11207;59.512;18.050;2022-08-23T01:47:17;3.20;;;2.20;;
22080;SDS011;11207;59.512;18.050;2022-08-23T01:49:43;4.30;;;2.00;;
22080;SDS011;11207;59.512;18.050;2022-08-23T01:52:09;4.60;;;2.50;;
22080;SDS011;11207;59.512;18.050;2022-08-23T01:54:34;4.33;;;2.30;;
22080;SDS011;11207;59.512;18.050;2022-08-23T01:57:00;6.03;;;2.50;;
22080;SDS011;11207;59.512;18.050;2022-08-23T01:59:26;4.57;;;2.50;;
22080;SDS011;11207;59.512;18.050;2022-08-23T02:01:51;3.80;;;2.30;;
22080;SDS011;11207;59.512;18.050;2022-08-23T02:04:17;6.07;;;2.37;;
22080;SDS011;11207;59.512;18.050;2022-08-23T02:06:43;4.57;;;2.43;;
22080;SDS011;11207;59.512;18.050;2022-08-23T02:09:09;5.83;;;2.23;;
22080;SDS011;11207;59.512;18.050;2022-08-23T02:11:39;5.10;;;2.53;;
22080;SDS011;11207;59.512;18.050;2022-08-23T02:14:09;2.93;;;2.20;;
22080;SDS011;11207;59.512;18.050;2022-08-23T02:16:42;4.63;;;2.40;;
22080;SDS011;11207;59.512;18.050;2022-08-23T02:19:12;5.10;;;2.30;;
22080;SDS011;11207;59.512;18.050;2022-08-23T02:21:39;7.03;;;2.53;;
22080;SDS011;11207;59.512;18.050;2022-08-23T02:24:17;7.87;;;2.23;;
22080;SDS011;11207;59.512;18.050;2022-08-23T02:26:46;2.20;;;2.00;;
22080;SDS011;11207;59.512;18.050;2022-08-23T02:29:14;3.43;;;2.40;;
22080;SDS011;11207;59.512;18.050;2022-08-23T02:31:41;3.10;;;2.30;;
22080;SDS011;11207;59.512;18.050;2022-08-23T02:34:08;3.97;;;1.97;;
22080;SDS011;11207;59.512;18.050;2022-08-23T02:36:35;4.10;;;2.17;;
22080;SDS011;11207;59.512;18.050;2022-08-23T02:39:02;2.67;;;2.37;;
22080;SDS011;11207;59.512;18.050;2022-08-23T02:41:30;4.03;;;2.63;;
22080;SDS011;11207;59.512;18.050;2022-08-23T02:43:56;3.53;;;2.30;;
22080;SDS011;11207;59.512;18.050;2022-08-23T02:46:22;4.13;;;2.40;;
22080;SDS011;11207;59.512;18.050;2022-08-23T02:48:48;3.10;;;2.40;;
22080;SDS011;11207;59.512;18.050;2022-08-23T02:51:14;3.37;;;2.50;;
22080;SDS011;11207;59.512;18.050;2022-08-23T02:53:41;2.97;;;2.20;;
22080;SDS011;11207;59.512;18.050;2022-08-23T02:56:07;5.00;;;2.50;;
22080;SDS011;11207;59.512;18.050;2022-08-23T02:58:34;4.67;;;2.40;;
22080;SDS011;11207;59.512;18.050;2022-08-23T03:00:59;4.10;;;2.40;;
22080;SDS011;11207;59.512;18.050;2022-08-23T03:03:25;4.07;;;2.87;;
22080;SDS011;11207;59.512;18.050;2022-08-23T03:05:51;5.03;;;2.87;;
22080;SDS011;11207;59.512;18.050;2022-08-23T03:08:17;5.00;;;2.33;;
22080;SDS011;11207;59.512;18.050;2022-08-23T03:10:44;3.07;;;2.20;;
22080;SDS011;11207;59.512;18.050;2022-08-23T03:13:11;3.57;;;2.50;;
22080;SDS011;11207;59.512;18.050;2022-08-23T03:15:38;7.13;;;2.60;;
22080;SDS011;11207;59.512;18.050;2022-08-23T03:18:04;3.50;;;2.37;;
22080;SDS011;11207;59.512;18.050;2022-08-23T03:20:30;5.10;;;2.43;;
22080;SDS011;11207;59.512;18.050;2022-08-23T03:22:57;2.87;;;2.20;;
22080;SDS011;11207;59.512;18.050;2022-08-23T03:25:22;3.93;;;2.40;;
22080;SDS011;11207;59.512;18.050;2022-08-23T03:27:48;2.77;;;2.20;;
22080;SDS011;11207;59.512;18.050;2022-08-23T03:30:14;4.80;;;2.20;;
22080;SDS011;11207;59.512;18.050;2022-08-23T03:32:40;5.83;;;2.57;;
22080;SDS011;11207;59.512;18.050;2022-08-23T03:35:06;4.53;;;2.30;;
22080;SDS011;11207;59.512;18.050;2022-08-23T03:37:33;3.70;;;2.33;;
22080;SDS011;11207;59.512;18.050;2022-08-23T03:39:59;3.60;;;2.30;;
22080;SDS011;11207;59.512;18.050;2022-08-23T03:42:25;3.47;;;2.13;;
22080;SDS011;11207;59.512;18.050;2022-08-23T03:44:50;3.03;;;2.23;;
22080;SDS011;11207;59.512;18.050;2022-08-23T03:47:16;4.43;;;2.63;;
22080;SDS011;11207;59.512;18.050;2022-08-23T03:49:42;4.17;;;2.47;;
22080;SDS011;11207;59.512;18.050;2022-08-23T03:52:07;3.60;;;2.67;;
22080;SDS011;11207;59.512;18.050;2022-08-23T03:54:35;5.03;;;2.40;;
22080;SDS011;11207;59.512;18.050;2022-08-23T03:57:02;3.90;;;2.30;;
22080;SDS011;11207;59.512;18.050;2022-08-23T03:59:31;2.83;;;2.07;;
22080;SDS011;11207;59.512;18.050;2022-08-23T04:01:58;2.40;;;2.20;;
22080;SDS011;11207;59.512;18.050;2022-08-23T04:04:24;6.33;;;2.53;;
22080;SDS011;11207;59.512;18.050;2022-08-23T04:06:50;2.20;;;2.10;;
22080;SDS011;11207;59.512;18.050;2022-08-23T04:09:16;3.57;;;2.07;;
22080;SDS011;11207;59.512;18.050;2022-08-23T04:11:42;3.83;;;2.30;;
22080;SDS011;11207;59.512;18.050;2022-08-23T04:14:08;5.57;;;2.50;;
22080;SDS011;11207;59.512;18.050;2022-08-23T04:16:35;4.17;;;2.40;;
22080;SDS011;11207;59.512;18.050;2022-08-23T04:19:08;3.67;;;2.30;;
22080;SDS011;11207;59.512;18.050;2022-08-23T04:21:39;3.10;;;2.33;;
22080;SDS011;11207;59.512;18.050;2022-08-23T04:24:08;3.43;;;2.17;;
22080;SDS011;11207;59.512;18.050;2022-08-23T04:26:33;6.60;;;2.70;;
22080;SDS011;11207;59.512;18.050;2022-08-23T04:28:59;3.57;;;2.40;;
22080;SDS011;11207;59.512;18.050;2022-08-23T04:31:26;3.97;;;2.17;;
22080;SDS011;11207;59.512;18.050;2022-08-23T04:33:55;3.43;;;2.30;;
22080;SDS011;11207;59.512;18.050;2022-08-23T04:36:21;4.77;;;2.07;;
22080;SDS011;11207;59.512;18.050;2022-08-23T04:38:47;7.10;;;2.30;;
22080;SDS011;11207;59.512;18.050;2022-08-23T04:41:13;3.90;;;2.20;;
22080;SDS011;11207;59.512;18.050;2022-08-23T04:43:58;3.57;;;2.40;;
22080;SDS011;11207;59.512;18.050;2022-08-23T04:46:24;3.70;;;2.20;;
22080;SDS011;11207;59.512;18.050;2022-08-23T04:48:50;3.93;;;2.40;;
22080;SDS011;11207;59.512;18.050;2022-08-23T04:51:16;2.87;;;2.10;;
22080;SDS011;11207;59.512;18.050;2022-08-23T04:53:42;2.77;;;2.10;;
22080;SDS011;11207;59.512;18.050;2022-08-23T04:56:08;3.30;;;2.00;;
22080;SDS011;11207;59.512;18.050;2022-08-23T04:58:34;4.17;;;2.53;;
22080;SDS011;11207;59.512;18.050;2022-08-23T05:01:03;3.77;;;1.93;;
22080;SDS011;11207;59.512;18.050;2022-08-23T05:03:31;4.40;;;2.20;;
22080;SDS011;11207;59.512;18.050;2022-08-23T05:05:56;2.93;;;2.17;;
22080;SDS011;11207;59.512;18.050;2022-08-23T05:08:23;3.17;;;2.30;;
22080;SDS011;11207;59.512;18.050;2022-08-23T05:10:49;3.43;;;2.20;;
22080;SDS011;11207;59.512;18.050;2022-08-23T05:13:15;2.37;;;2.17;;
22080;SDS011;11207;59.512;18.050;2022-08-23T05:15:41;4.30;;;2.50;;
22080;SDS011;11207;59.512;18.050;2022-08-23T05:18:08;2.80;;;2.40;;
22080;SDS011;11207;59.512;18.050;2022-08-23T05:20:34;2.17;;;2.00;;
22080;SDS011;11207;59.512;18.050;2022-08-23T05:23:00;3.93;;;2.10;;
22080;SDS011;11207;59.512;18.050;2022-08-23T05:25:26;5.13;;;2.33;;
22080;SDS011;11207;59.512;18.050;2022-08-23T05:28:12;2.73;;;1.90;;
22080;SDS011;11207;59.512;18.050;2022-08-23T05:30:38;3.43;;;2.10;;
22080;SDS011;11207;59.512;18.050;2022-08-23T05:33:04;2.40;;;2.10;;
22080;SDS011;11207;59.512;18.050;2022-08-23T05:35:30;2.53;;;2.10;;
22080;SDS011;11207;59.512;18.050;2022-08-23T05:37:55;4.47;;;2.37;;
22080;SDS011;11207;59.512;18.050;2022-08-23T05:40:24;4.70;;;2.37;;
22080;SDS011;11207;59.512;18.050;2022-08-23T05:42:51;2.60;;;2.40;;
22080;SDS011;11207;59.512;18.050;2022-08-23T05:45:17;3.47;;;2.30;;
22080;SDS011;11207;59.512;18.050;2022-08-23T05:47:43;3.83;;;2.70;;
22080;SDS011;11207;59.512;18.050;2022-08-23T05:50:10;3.40;;;2.23;;
22080;SDS011;11207;59.512;18.050;2022-08-23T05:52:36;5.40;;;2.30;;
22080;SDS011;11207;59.512;18.050;2022-08-23T05:55:02;3.13;;;2.30;;
22080;SDS011;11207;59.512;18.050;2022-08-23T05:57:33;4.33;;;2.37;;
22080;SDS011;11207;59.512;18.050;2022-08-23T05:59:59;2.33;;;2.10;;
22080;SDS011;11207;59.512;18.050;2022-08-23T06:02:25;3.20;;;2.43;;
22080;SDS011;11207;59.512;18.050;2022-08-23T06:04:50;4.93;;;2.63;;
22080;SDS011;11207;59.512;18.050;2022-08-23T06:07:16;3.77;;;2.30;;
22080;SDS011;11207;59.512;18.050;2022-08-23T06:09:42;3.93;;;2.30;;
22080;SDS011;11207;59.512;18.050;2022-08-23T06:12:07;6.43;;;2.30;;
22080;SDS011;11207;59.512;18.050;2022-08-23T06:14:33;5.90;;;2.90;;
22080;SDS011;11207;59.512;18.050;2022-08-23T06:16:59;3.93;;;2.23;;
22080;SDS011;11207;59.512;18.050;2022-08-23T06:19:24;4.23;;;2.20;;
22080;SDS011;11207;59.512;18.050;2022-08-23T06:21:50;3.20;;;2.27;;
22080;SDS011;11207;59.512;18.050;2022-08-23T06:24:16;2.90;;;2.13;;
22080;SDS011;11207;59.512;18.050;2022-08-23T06:26:43;2.40;;;2.20;;
22080;SDS011;11207;59.512;18.050;2022-08-23T06:29:10;3.60;;;2.03;;
22080;SDS011;11207;59.512;18.050;2022-08-23T06:31:42;2.77;;;2.07;;
22080;SDS011;11207;59.512;18.050;2022-08-23T06:34:44;3.43;;;2.27;;
22080;SDS011;11207;59.512;18.050;2022-08-23T06:37:07;4.57;;;2.13;;
22080;SDS011;11207;59.512;18.050;2022-08-23T06:39:38;3.23;;;2.00;;
22080;SDS011;11207;59.512;18.050;2022-08-23T06:42:09;5.33;;;2.00;;
22080;SDS011;11207;59.512;18.050;2022-08-23T06:44:36;4.47;;;2.10;;
22080;SDS011;11207;59.512;18.050;2022-08-23T06:47:03;6.03;;;2.03;;
22080;SDS011;11207;59.512;18.050;2022-08-23T06:49:29;4.73;;;2.27;;
22080;SDS011;11207;59.512;18.050;2022-08-23T06:51:56;5.50;;;2.27;;
22080;SDS011;11207;59.512;18.050;2022-08-23T06:54:29;5.90;;;2.37;;
22080;SDS011;11207;59.512;18.050;2022-08-23T06:56:57;4.77;;;1.97;;
22080;SDS011;11207;59.512;18.050;2022-08-23T06:59:26;3.87;;;1.90;;
22080;SDS011;11207;59.512;18.050;2022-08-23T07:02:03;6.70;;;2.33;;
22080;SDS011;11207;59.512;18.050;2022-08-23T07:04:31;3.63;;;1.80;;
22080;SDS011;11207;59.512;18.050;2022-08-23T07:06:59;5.40;;;2.10;;
22080;SDS011;11207;59.512;18.050;2022-08-23T07:09:25;6.97;;;2.10;;
22080;SDS011;11207;59.512;18.050;2022-08-23T07:11:52;4.20;;;1.80;;
22080;SDS011;11207;59.512;18.050;2022-08-23T07:14:19;4.27;;;1.83;;
22080;SDS011;11207;59.512;18.050;2022-08-23T07:16:47;3.97;;;1.90;;
22080;SDS011;11207;59.512;18.050;2022-08-23T07:19:25;6.23;;;2.63;;
22080;SDS011;11207;59.512;18.050;2022-08-23T07:21:52;6.47;;;2.27;;
22080;SDS011;11207;59.512;18.050;2022-08-23T07:24:19;5.17;;;1.83;;
22080;SDS011;11207;59.512;18.050;2022-08-23T07:26:46;8.53;;;1.83;;
22080;SDS011;11207;59.512;18.050;2022-08-23T07:29:13;3.53;;;1.73;;
22080;SDS011;11207;59.512;18.050;2022-08-23T07:31:41;4.10;;;1.77;;
22080;SDS011;11207;59.512;18.050;2022-08-23T07:34:09;4.10;;;2.13;;
22080;SDS011;11207;59.512;18.050;2022-08-23T07:36:36;5.57;;;2.17;;
22080;SDS011;11207;59.512;18.050;2022-08-23T07:39:04;4.03;;;1.77;;
22080;SDS011;11207;59.512;18.050;2022-08-23T07:41:31;6.73;;;2.13;;
22080;SDS011;11207;59.512;18.050;2022-08-23T07:43:57;5.13;;;1.80;;
22080;SDS011;11207;59.512;18.050;2022-08-23T07:46:25;3.37;;;1.70;;
22080;SDS011;11207;59.512;18.050;2022-08-23T07:48:52;3.87;;;1.83;;
22080;SDS011;11207;59.512;18.050;2022-08-23T07:51:18;4.60;;;1.83;;
22080;SDS011;11207;59.512;18.050;2022-08-23T07:53:44;3.97;;;1.80;;
22080;SDS011;11207;59.512;18.050;2022-08-23T07:56:11;4.10;;;1.87;;
22080;SDS011;11207;59.512;18.050;2022-08-23T07:58:39;5.13;;;1.63;;
22080;SDS011;11207;59.512;18.050;2022-08-23T08:01:09;3.40;;;2.00;;
22080;SDS011;11207;59.512;18.050;2022-08-23T08:03:38;3.47;;;1.70;;
22080;SDS011;11207;59.512;18.050;2022-08-23T08:06:08;3.17;;;1.87;;
22080;SDS011;11207;59.512;18.050;2022-08-23T08:08:36;5.30;;;2.10;;
22080;SDS011;11207;59.512;18.050;2022-08-23T08:11:02;2.08;;;1.50;;
22080;SDS011;11207;59.512;18.050;2022-08-23T08:13:28;3.97;;;1.90;;
22080;SDS011;11207;59.512;18.050;2022-08-23T08:15:55;5.62;;;1.60;;
22080;SDS011;11207;59.512;18.050;2022-08-23T08:18:20;1.48;;;1.30;;
22080;SDS011;11207;59.512;18.050;2022-08-23T08:20:46;2.37;;;1.37;;
22080;SDS011;11207;59.512;18.050;2022-08-23T08:23:12;2.10;;;1.37;;
22080;SDS011;11207;59.512;18.050;2022-08-23T08:25:37;5.33;;;1.77;;
22080;SDS011;11207;59.512;18.050;2022-08-23T08:28:03;7.57;;;1.90;;
22080;SDS011;11207;59.512;18.050;2022-08-23T08:30:29;4.00;;;2.13;;
22080;SDS011;11207;59.512;18.050;2022-08-23T08:32:54;3.55;;;1.67;;
22080;SDS011;11207;59.512;18.050;2022-08-23T08:35:20;2.12;;;1.48;;
22080;SDS011;11207;59.512;18.050;2022-08-23T08:37:46;3.03;;;1.60;;
22080;SDS011;11207;59.512;18.050;2022-08-23T08:40:11;3.85;;;1.62;;
22080;SDS011;11207;59.512;18.050;2022-08-23T08:45:25;3.33;;;1.37;;
22080;SDS011;11207;59.512;18.050;2022-08-23T08:48:01;2.72;;;1.40;;
22080;SDS011;11207;59.512;18.050;2022-08-23T08:53:03;2.78;;;1.50;;
22080;SDS011;11207;59.512;18.050;2022-08-23T08:55:40;7.12;;;1.67;;
22080;SDS011;11207;59.512;18.050;2022-08-23T08:58:23;3.25;;;1.50;;
22080;SDS011;11207;59.512;18.050;2022-08-23T09:00:52;2.20;;;1.42;;
22080;SDS011;11207;59.512;18.050;2022-08-23T09:03:19;5.43;;;2.10;;
22080;SDS011;11207;59.512;18.050;2022-08-23T09:11:30;2.87;;;1.50;;
22080;SDS011;11207;59.512;18.050;2022-08-23T09:16:53;3.17;;;1.58;;
22080;SDS011;11207;59.512;18.050;2022-08-23T09:19:26;3.87;;;1.45;;
22080;SDS011;11207;59.512;18.050;2022-08-23T09:22:11;3.65;;;1.30;;
22080;SDS011;11207;59.512;18.050;2022-08-23T09:24:40;4.00;;;1.40;;
22080;SDS011;11207;59.512;18.050;2022-08-23T09:27:09;3.67;;;1.80;;
22080;SDS011;11207;59.512;18.050;2022-08-23T09:29:36;4.12;;;1.50;;
22080;SDS011;11207;59.512;18.050;2022-08-23T09:35:13;2.35;;;1.35;;
22080;SDS011;11207;59.512;18.050;2022-08-23T09:37:54;2.15;;;1.30;;
22080;SDS011;11207;59.512;18.050;2022-08-23T09:40:38;2.35;;;1.70;;
22080;SDS011;11207;59.512;18.050;2022-08-23T09:43:15;5.35;;;1.40;;
22080;SDS011;11207;59.512;18.050;2022-08-23T09:56:31;2.72;;;1.37;;
22080;SDS011;11207;59.512;18.050;2022-08-23T09:59:01;5.45;;;1.70;;
22080;SDS011;11207;59.512;18.050;2022-08-23T10:01:28;6.22;;;1.62;;
22080;SDS011;11207;59.512;18.050;2022-08-23T10:06:38;5.07;;;1.83;;
22080;SDS011;11207;59.512;18.050;2022-08-23T10:09:06;3.05;;;1.23;;
22080;SDS011;11207;59.512;18.050;2022-08-23T10:11:35;1.85;;;1.15;;
22080;SDS011;11207;59.512;18.050;2022-08-23T10:14:05;2.58;;;1.23;;
22080;SDS011;11207;59.512;18.050;2022-08-23T10:24:43;2.60;;;1.23;;
22080;SDS011;11207;59.512;18.050;2022-08-23T10:30:11;1.77;;;1.20;;
22080;SDS011;11207;59.512;18.050;2022-08-23T10:32:50;2.67;;;1.25;;
22080;SDS011;11207;59.512;18.050;2022-08-23T10:35:36;4.30;;;1.20;;
22080;SDS011;11207;59.512;18.050;2022-08-23T10:43:14;2.58;;;1.20;;
22080;SDS011;11207;59.512;18.050;2022-08-23T10:45:51;4.12;;;1.48;;
22080;SDS011;11207;59.512;18.050;2022-08-23T10:48:25;3.80;;;1.20;;
22080;SDS011;11207;59.512;18.050;2022-08-23T10:51:22;1.40;;;1.10;;
22080;SDS011;11207;59.512;18.050;2022-08-23T10:54:04;3.00;;;1.70;;
22080;SDS011;11207;59.512;18.050;2022-08-23T10:56:34;3.85;;;1.40;;
22080;SDS011;11207;59.512;18.050;2022-08-23T11:04:33;5.55;;;1.52;;
22080;SDS011;11207;59.512;18.050;2022-08-23T11:07:13;4.80;;;1.77;;
22080;SDS011;11207;59.512;18.050;2022-08-23T11:10:14;4.90;;;1.50;;
22080;SDS011;11207;59.512;18.050;2022-08-23T11:12:53;13.35;;;1.85;;
22080;SDS011;11207;59.512;18.050;2022-08-23T11:15:44;7.32;;;2.00;;
22080;SDS011;11207;59.512;18.050;2022-08-23T11:18:39;3.45;;;1.50;;
22080;SDS011;11207;59.512;18.050;2022-08-23T11:28:47;2.25;;;1.40;;
22080;SDS011;11207;59.512;18.050;2022-08-23T11:33:51;3.33;;;1.70;;
22080;SDS011;11207;59.512;18.050;2022-08-23T11:36:27;3.87;;;1.60;;
22080;SDS011;11207;59.512;18.050;2022-08-23T11:41:25;1.77;;;1.10;;
22080;SDS011;11207;59.512;18.050;2022-08-23T11:46:31;3.95;;;1.42;;
22080;SDS011;11207;59.512;18.050;2022-08-23T11:51:42;5.80;;;1.42;;
22080;SDS011;11207;59.512;18.050;2022-08-23T11:54:32;4.28;;;1.77;;
22080;SDS011;11207;59.512;18.050;2022-08-23T12:16:03;2.37;;;1.20;;
22080;SDS011;11207;59.512;18.050;2022-08-23T12:18:33;2.75;;;1.35;;
22080;SDS011;11207;59.512;18.050;2022-08-23T12:21:02;3.50;;;1.10;;
22080;SDS011;11207;59.512;18.050;2022-08-23T12:23:30;3.67;;;1.23;;
22080;SDS011;11207;59.512;18.050;2022-08-23T12:26:20;2.03;;;1.40;;
22080;SDS011;11207;59.512;18.050;2022-08-23T12:28:48;4.60;;;1.58;;
22080;SDS011;11207;59.512;18.050;2022-08-23T12:31:47;3.60;;;1.55;;
22080;SDS011;11207;59.512;18.050;2022-08-23T12:37:15;6.45;;;1.77;;
22080;SDS011;11207;59.512;18.050;2022-08-23T12:39:55;3.53;;;1.50;;
22080;SDS011;11207;59.512;18.050;2022-08-23T12:42:29;1.92;;;1.65;;
22080;SDS011;11207;59.512;18.050;2022-08-23T12:45:19;3.40;;;1.52;;
22080;SDS011;11207;59.512;18.050;2022-08-23T12:47:56;2.72;;;1.33;;
22080;SDS011;11207;59.512;18.050;2022-08-23T12:50:29;3.42;;;1.52;;
22080;SDS011;11207;59.512;18.050;2022-08-23T12:53:03;2.62;;;1.33;;
22080;SDS011;11207;59.512;18.050;2022-08-23T12:55:35;3.33;;;1.20;;
22080;SDS011;11207;59.512;18.050;2022-08-23T12:58:04;3.22;;;1.50;;
22080;SDS011;11207;59.512;18.050;2022-08-23T13:03:11;3.08;;;1.40;;
22080;SDS011;11207;59.512;18.050;2022-08-23T13:05:59;1.80;;;1.30;;
22080;SDS011;11207;59.512;18.050;2022-08-23T13:08:33;3.22;;;1.40;;
22080;SDS011;11207;59.512;18.050;2022-08-23T13:11:01;1.70;;;1.30;;
22080;SDS011;11207;59.512;18.050;2022-08-23T13:13:28;3.37;;;1.30;;
22080;SDS011;11207;59.512;18.050;2022-08-23T13:15:56;4.62;;;1.60;;
22080;SDS011;11207;59.512;18.050;2022-08-23T13:18:31;5.05;;;1.75;;
22080;SDS011;11207;59.512;18.050;2022-08-23T13:23:50;2.83;;;1.40;;
22080;SDS011;11207;59.512;18.050;2022-08-23T13:29:09;2.25;;;1.30;;
22080;SDS011;11207;59.512;18.050;2022-08-23T13:31:52;1.50;;;1.00;;
22080;SDS011;11207;59.512;18.050;2022-08-23T13:36:59;1.45;;;1.10;;
22080;SDS011;11207;59.512;18.050;2022-08-23T13:39:30;1.73;;;1.00;;
22080;SDS011;11207;59.512;18.050;2022-08-23T13:41:59;3.03;;;1.20;;
22080;SDS011;11207;59.512;18.050;2022-08-23T13:44:24;3.85;;;1.40;;
22080;SDS011;11207;59.512;18.050;2022-08-23T13:46:51;2.58;;;1.40;;
22080;SDS011;11207;59.512;18.050;2022-08-23T13:49:17;1.25;;;1.15;;
22080;SDS011;11207;59.512;18.050;2022-08-23T13:54:24;2.25;;;1.12;;
22080;SDS011;11207;59.512;18.050;2022-08-23T13:56:53;2.22;;;1.30;;
22080;SDS011;11207;59.512;18.050;2022-08-23T13:59:23;2.80;;;1.40;;
22080;SDS011;11207;59.512;18.050;2022-08-23T14:01:52;2.30;;;1.35;;
22080;SDS011;11207;59.512;18.050;2022-08-23T14:04:21;4.65;;;1.20;;
22080;SDS011;11207;59.512;18.050;2022-08-23T14:06:47;3.47;;;1.10;;
22080;SDS011;11207;59.512;18.050;2022-08-23T14:09:12;2.47;;;1.23;;
22080;SDS011;11207;59.512;18.050;2022-08-23T14:11:39;6.00;;;1.10;;
22080;SDS011;11207;59.512;18.050;2022-08-23T14:14:05;3.25;;;1.17;;
22080;SDS011;11207;59.512;18.050;2022-08-23T14:16:32;5.18;;;1.37;;
22080;SDS011;11207;59.512;18.050;2022-08-23T14:19:02;3.72;;;1.40;;
22080;SDS011;11207;59.512;18.050;2022-08-23T14:21:34;2.28;;;1.20;;
22080;SDS011;11207;59.512;18.050;2022-08-23T14:24:01;1.92;;;1.10;;
22080;SDS011;11207;59.512;18.050;2022-08-23T14:26:27;2.03;;;1.20;;
22080;SDS011;11207;59.512;18.050;2022-08-23T14:28:53;3.10;;;1.35;;
22080;SDS011;11207;59.512;18.050;2022-08-23T14:31:19;1.67;;;1.25;;
22080;SDS011;11207;59.512;18.050;2022-08-23T14:33:46;1.58;;;1.00;;
22080;SDS011;11207;59.512;18.050;2022-08-23T14:36:14;1.35;;;1.15;;
22080;SDS011;11207;59.512;18.050;2022-08-23T14:38:40;1.43;;;1.00;;
22080;SDS011;11207;59.512;18.050;2022-08-23T14:41:06;3.05;;;1.35;;
22080;SDS011;11207;59.512;18.050;2022-08-23T14:43:35;1.90;;;1.30;;
22080;SDS011;11207;59.512;18.050;2022-08-23T14:46:01;1.52;;;1.27;;
22080;SDS011;11207;59.512;18.050;2022-08-23T14:48:27;2.10;;;1.58;;
22080;SDS011;11207;59.512;18.050;2022-08-23T14:50:53;2.00;;;1.20;;
22080;SDS011;11207;59.512;18.050;2022-08-23T14:53:21;2.43;;;1.13;;
22080;SDS011;11207;59.512;18.050;2022-08-23T14:55:49;1.83;;;1.35;;
22080;SDS011;11207;59.512;18.050;2022-08-23T14:58:17;2.65;;;1.30;;
22080;SDS011;11207;59.512;18.050;2022-08-23T15:00:44;2.35;;;1.30;;
22080;SDS011;11207;59.512;18.050;2022-08-23T15:03:10;1.42;;;1.00;;
22080;SDS011;11207;59.512;18.050;2022-08-23T15:05:41;1.43;;;1.00;;
22080;SDS011;11207;59.512;18.050;2022-08-23T15:08:07;1.25;;;1.15;;
22080;SDS011;11207;59.512;18.050;2022-08-23T15:10:33;3.22;;;1.40;;
22080;SDS011;11207;59.512;18.050;2022-08-23T15:12:58;1.52;;;1.23;;
22080;SDS011;11207;59.512;18.050;2022-08-23T15:15:24;1.75;;;1.35;;
22080;SDS011;11207;59.512;18.050;2022-08-23T15:17:55;2.83;;;1.23;;
22080;SDS011;11207;59.512;18.050;2022-08-23T15:20:30;1.67;;;1.20;;
22080;SDS011;11207;59.512;18.050;2022-08-23T15:22:58;4.65;;;1.40;;
22080;SDS011;11207;59.512;18.050;2022-08-23T15:25:24;1.77;;;1.23;;
22080;SDS011;11207;59.512;18.050;2022-08-23T15:27:53;4.47;;;1.33;;
22080;SDS011;11207;59.512;18.050;2022-08-23T15:30:21;2.67;;;1.33;;
22080;SDS011;11207;59.512;18.050;2022-08-23T15:32:47;1.43;;;1.20;;
22080;SDS011;11207;59.512;18.050;2022-08-23T15:35:14;2.00;;;1.13;;
22080;SDS011;11207;59.512;18.050;2022-08-23T15:37:39;2.00;;;1.17;;
22080;SDS011;11207;59.512;18.050;2022-08-23T15:40:06;3.15;;;1.17;;
22080;SDS011;11207;59.512;18.050;2022-08-23T15:42:32;1.87;;;1.35;;
22080;SDS011;11207;59.512;18.050;2022-08-23T15:44:59;1.10;;;1.00;;
22080;SDS011;11207;59.512;18.050;2022-08-23T15:47:26;3.70;;;1.40;;
22080;SDS011;11207;59.512;18.050;2022-08-23T15:49:54;3.33;;;1.40;;
22080;SDS011;11207;59.512;18.050;2022-08-23T15:52:22;2.15;;;1.33;;
22080;SDS011;11207;59.512;18.050;2022-08-23T15:54:48;1.30;;;1.20;;
22080;SDS011;11207;59.512;18.050;2022-08-23T15:57:15;2.05;;;1.10;;
22080;SDS011;11207;59.512;18.050;2022-08-23T15:59:44;1.58;;;1.48;;
22080;SDS011;11207;59.512;18.050;2022-08-23T16:02:10;0.93;;;0.93;;
22080;SDS011;11207;59.512;18.050;2022-08-23T16:04:35;3.92;;;1.20;;
22080;SDS011;11207;59.512;18.050;2022-08-23T16:07:05;1.77;;;1.35;;
22080;SDS011;11207;59.512;18.050;2022-08-23T16:09:33;1.27;;;1.02;;
22080;SDS011;11207;59.512;18.050;2022-08-23T16:11:59;2.40;;;1.40;;
22080;SDS011;11207;59.512;18.050;2022-08-23T16:14:25;1.55;;;1.25;;
22080;SDS011;11207;59.512;18.050;2022-08-23T16:16:51;2.40;;;1.40;;
22080;SDS011;11207;59.512;18.050;2022-08-23T16:19:17;1.90;;;1.40;;
22080;SDS011;11207;59.512;18.050;2022-08-23T16:21:43;3.07;;;1.40;;
22080;SDS011;11207;59.512;18.050;2022-08-23T16:24:08;1.98;;;1.52;;
22080;SDS011;11207;59.512;18.050;2022-08-23T16:26:35;3.83;;;1.50;;
22080;SDS011;11207;59.512;18.050;2022-08-23T16:29:04;1.58;;;1.30;;
22080;SDS011;11207;59.512;18.050;2022-08-23T16:31:31;1.92;;;1.20;;
22080;SDS011;11207;59.512;18.050;2022-08-23T16:33:57;5.67;;;1.60;;
22080;SDS011;11207;59.512;18.050;2022-08-23T16:36:25;3.27;;;1.50;;
22080;SDS011;11207;59.512;18.050;2022-08-23T16:38:51;1.67;;;1.23;;
22080;SDS011;11207;59.512;18.050;2022-08-23T16:41:20;1.97;;;1.40;;
22080;SDS011;11207;59.512;18.050;2022-08-23T16:43:48;1.83;;;1.20;;